createdAt,value
2023-02-14T00:01:53.353Z,9.16
2023-02-14T00:04:19.980Z,9.22
2023-02-14T00:06:46.825Z,9.49
2023-02-14T00:09:15.908Z,9.38
2023-02-14T00:11:42.709Z,9.16
2023-02-14T00:14:28.370Z,8.98
2023-02-14T00:16:54.909Z,8.97
2023-02-14T00:19:21.817Z,8.84
2023-02-14T00:21:48.839Z,8.84
2023-02-14T00:24:18.224Z,8.75
2023-02-14T00:26:45.446Z,8.63
2023-02-14T00:29:14.301Z,8.90
2023-02-14T00:31:41.568Z,8.78
2023-02-14T00:34:08.789Z,8.72
2023-02-14T00:36:35.928Z,7.93
2023-02-14T00:39:07.477Z,8.65
2023-02-14T00:41:34.273Z,8.52
2023-02-14T00:44:00.945Z,8.78
2023-02-14T00:46:27.972Z,8.86
2023-02-14T00:48:54.632Z,9.00
2023-02-14T00:51:21.812Z,8.93
2023-02-14T00:53:49.160Z,9.22
2023-02-14T00:56:16.192Z,9.02
2023-02-14T00:58:42.806Z,8.79
2023-02-14T01:01:09.553Z,8.86
2023-02-14T01:03:36.866Z,8.89
2023-02-14T01:06:04.388Z,8.49
2023-02-14T01:08:31.346Z,7.81
2023-02-14T01:10:58.130Z,8.40
2023-02-14T01:13:24.778Z,8.46
2023-02-14T01:15:51.875Z,8.08
2023-02-14T01:18:19.195Z,8.50
2023-02-14T01:20:45.915Z,8.50
2023-02-14T01:23:12.404Z,8.72
2023-02-14T01:25:39.975Z,8.62
2023-02-14T01:28:06.659Z,8.81
2023-02-14T01:30:33.283Z,9.01
2023-02-14T01:32:59.819Z,8.96
2023-02-14T01:35:26.312Z,8.73
2023-02-14T01:37:52.786Z,8.47
2023-02-14T01:40:19.493Z,8.06
2023-02-14T01:42:45.976Z,8.46
2023-02-14T01:45:19.269Z,8.06
2023-02-14T01:47:47.666Z,8.40
2023-02-14T01:50:30.596Z,8.55
2023-02-14T01:53:03.291Z,8.67
2023-02-14T01:55:33.114Z,8.07
2023-02-14T01:58:15.662Z,8.17
2023-02-14T02:00:58.296Z,7.98
2023-02-14T02:03:30.174Z,8.60
2023-02-14T02:06:01.740Z,8.03
2023-02-14T02:08:28.338Z,7.81
2023-02-14T02:10:54.843Z,8.56
2023-02-14T02:13:22.295Z,8.38
2023-02-14T02:15:57.198Z,8.30
2023-02-14T02:18:23.590Z,8.32
2023-02-14T02:21:30.560Z,8.26
2023-02-14T02:24:14.401Z,8.68
2023-02-14T02:26:54.415Z,8.24
2023-02-14T02:29:38.446Z,8.31
2023-02-14T02:32:32.833Z,8.60
2023-02-14T02:35:17.585Z,8.42
2023-02-14T02:37:56.133Z,8.36
2023-02-14T02:40:41.332Z,8.26
2023-02-14T02:43:37.206Z,8.03
2023-02-14T02:46:30.352Z,7.98
2023-02-14T02:49:08.308Z,7.77
2023-02-14T02:52:04.725Z,8.36
2023-02-14T02:54:53.998Z,8.04
2023-02-14T02:57:27.450Z,7.76
2023-02-14T02:59:55.370Z,7.55
2023-02-14T03:02:33.672Z,7.56
2023-02-14T03:05:02.431Z,7.60
2023-02-14T03:07:34.946Z,7.03
2023-02-14T03:10:09.548Z,7.13
2023-02-14T03:12:39.045Z,7.91
2023-02-14T03:15:35.879Z,8.14
2023-02-14T03:18:43.864Z,8.43
2023-02-14T03:21:25.329Z,8.13
2023-02-14T03:24:15.517Z,8.18
2023-02-14T03:27:03.228Z,8.03
2023-02-14T03:29:53.307Z,7.90
2023-02-14T03:32:39.430Z,8.02
2023-02-14T03:35:08.842Z,8.36
2023-02-14T03:37:41.611Z,7.78
2023-02-14T03:40:17.075Z,7.61
2023-02-14T03:42:51.398Z,7.54
2023-02-14T03:45:24.110Z,8.04
2023-02-14T03:47:50.967Z,7.87
2023-02-14T03:50:19.544Z,8.32
2023-02-14T03:52:49.806Z,8.42
2023-02-14T03:55:20.245Z,8.45
2023-02-14T03:57:56.031Z,8.48
2023-02-14T04:00:22.733Z,8.63
2023-02-14T04:02:55.897Z,8.73
2023-02-14T04:05:25.115Z,8.60
2023-02-14T04:07:54.824Z,8.20
2023-02-14T04:10:21.798Z,8.42
2023-02-14T04:12:48.793Z,8.25
2023-02-14T04:15:16.117Z,8.33
2023-02-14T04:18:01.268Z,7.68
2023-02-14T04:20:28.258Z,7.85
2023-02-14T04:22:55.162Z,7.78
2023-02-14T04:25:22.424Z,7.70
2023-02-14T04:27:49.134Z,8.28
2023-02-14T04:30:18.101Z,7.97
2023-02-14T04:33:08.414Z,7.98
2023-02-14T04:35:35.450Z,8.27
2023-02-14T04:38:03.353Z,8.45
2023-02-14T04:40:30.131Z,8.54
2023-02-14T04:42:57.237Z,8.52
2023-02-14T04:45:23.918Z,8.63
2023-02-14T04:47:50.392Z,8.34
2023-02-14T04:50:17.519Z,8.60
2023-02-14T04:52:44.043Z,8.47
2023-02-14T04:55:10.716Z,8.19
2023-02-14T04:57:37.281Z,8.31
2023-02-14T05:00:04.823Z,8.31
2023-02-14T05:02:31.280Z,7.43
2023-02-14T05:04:57.768Z,7.67
2023-02-14T05:07:24.215Z,8.04
2023-02-14T05:09:50.746Z,8.28
2023-02-14T05:12:17.290Z,8.53
2023-02-14T05:14:43.768Z,8.35
2023-02-14T05:17:10.264Z,8.32
2023-02-14T05:19:36.748Z,7.92
2023-02-14T05:22:03.214Z,8.02
2023-02-14T05:24:29.825Z,7.77
2023-02-14T05:26:56.284Z,7.69
2023-02-14T05:29:22.748Z,8.13
2023-02-14T05:31:49.426Z,8.04
2023-02-14T05:34:16.035Z,7.91
2023-02-14T05:36:42.766Z,7.45
2023-02-14T05:39:09.276Z,8.05
2023-02-14T05:41:35.714Z,7.81
2023-02-14T05:44:02.238Z,7.92
2023-02-14T05:46:28.789Z,7.56
2023-02-14T05:48:55.268Z,7.34
2023-02-14T05:51:21.716Z,7.63
2023-02-14T05:53:48.207Z,8.19
2023-02-14T05:56:14.704Z,8.33
2023-02-14T05:58:41.313Z,8.45
2023-02-14T06:01:07.850Z,8.54
2023-02-14T06:03:34.306Z,8.31
2023-02-14T06:06:00.814Z,8.29
2023-02-14T06:08:27.281Z,8.55
2023-02-14T06:10:53.867Z,8.48
2023-02-14T06:13:20.345Z,8.60
2023-02-14T06:15:46.833Z,8.55
2023-02-14T06:18:13.319Z,8.80
2023-02-14T06:20:39.812Z,8.72
2023-02-14T06:23:06.287Z,8.63
2023-02-14T06:25:32.931Z,8.61
2023-02-14T06:27:59.733Z,8.70
2023-02-14T06:30:26.757Z,8.45
2023-02-14T06:32:53.374Z,8.39
2023-02-14T06:35:19.862Z,8.36
2023-02-14T06:37:46.400Z,8.53
2023-02-14T06:40:13.796Z,8.42
2023-02-14T06:42:40.373Z,8.36
2023-02-14T06:45:07.313Z,7.92
2023-02-14T06:47:35.140Z,8.19
2023-02-14T06:50:04.318Z,8.58
2023-02-14T06:52:32.190Z,8.49
2023-02-14T06:54:58.676Z,8.58
2023-02-14T06:57:25.206Z,8.38
2023-02-14T06:59:51.691Z,8.37
2023-02-14T07:02:18.299Z,8.50
2023-02-14T07:04:44.827Z,8.42
2023-02-14T07:07:11.304Z,8.64
2023-02-14T07:09:37.866Z,8.54
2023-02-14T07:12:04.433Z,8.26
2023-02-14T07:14:30.904Z,8.50
2023-02-14T07:16:57.364Z,8.47
2023-02-14T07:19:23.795Z,8.39
2023-02-14T07:21:50.290Z,8.34
2023-02-14T07:24:16.720Z,8.14
2023-02-14T07:26:43.166Z,8.41
2023-02-14T07:29:09.714Z,8.59
2023-02-14T07:31:36.289Z,8.46
2023-02-14T07:34:02.921Z,8.74
2023-02-14T07:36:29.392Z,8.80
2023-02-14T07:38:56.671Z,9.10
2023-02-14T07:41:23.484Z,8.88
2023-02-14T07:43:49.955Z,8.45
2023-02-14T07:46:17.545Z,8.70
2023-02-14T07:48:44.360Z,8.79
2023-02-14T07:51:11.284Z,8.66
2023-02-14T07:53:38.014Z,8.58
2023-02-14T07:56:04.614Z,8.91
2023-02-14T07:58:31.080Z,8.87
2023-02-14T08:00:58.059Z,8.55
2023-02-14T08:03:24.748Z,8.77
2023-02-14T08:05:57.275Z,8.58
2023-02-14T08:08:29.922Z,8.58
2023-02-14T08:10:56.636Z,8.52
2023-02-14T08:13:23.158Z,8.31
2023-02-14T08:16:04.856Z,8.48
2023-02-14T08:18:41.970Z,8.55
2023-02-14T08:21:10.449Z,8.07
2023-02-14T08:23:37.909Z,8.45
2023-02-14T08:26:04.794Z,8.88
2023-02-14T08:28:33.165Z,8.88
2023-02-14T08:31:00.523Z,9.18
2023-02-14T08:33:27.254Z,9.11
2023-02-14T08:35:53.760Z,8.84
2023-02-14T08:38:20.256Z,9.09
2023-02-14T08:40:46.805Z,9.01
2023-02-14T08:43:13.769Z,9.21
2023-02-14T08:45:40.857Z,9.10
2023-02-14T08:48:12.192Z,9.45
2023-02-14T08:50:39.002Z,9.36
2023-02-14T08:53:10.553Z,8.99
2023-02-14T08:55:37.387Z,8.60
2023-02-14T08:58:04.519Z,8.59
2023-02-14T09:00:32.375Z,9.10
2023-02-14T09:02:59.180Z,8.93
2023-02-14T09:05:26.558Z,9.00
2023-02-14T09:07:55.916Z,9.60
2023-02-14T09:10:23.109Z,9.18
2023-02-14T09:12:49.666Z,8.60
2023-02-14T09:15:16.190Z,8.77
2023-02-14T09:17:42.660Z,9.00
2023-02-14T09:20:10.706Z,9.02
2023-02-14T09:22:37.329Z,9.63
2023-02-14T09:25:04.421Z,9.39
2023-02-14T09:27:31.014Z,9.14
2023-02-14T09:29:57.531Z,9.50
2023-02-14T09:32:25.273Z,10.09
2023-02-14T09:35:10.457Z,9.69
2023-02-14T09:37:36.960Z,9.38
2023-02-14T09:40:04.663Z,9.90
2023-02-14T09:42:37.428Z,9.21
2023-02-14T09:45:13.330Z,9.44
2023-02-14T09:48:15.181Z,10.13
2023-02-14T09:51:07.888Z,10.14
2023-02-14T09:53:44.670Z,9.76
2023-02-14T09:56:37.318Z,9.53
2023-02-14T09:59:27.542Z,9.45
2023-02-14T10:02:19.084Z,9.21
2023-02-14T10:04:59.030Z,9.43
2023-02-14T10:07:50.308Z,9.90
2023-02-14T10:10:25.693Z,9.46
2023-02-14T10:13:18.447Z,9.36
2023-02-14T10:15:47.450Z,9.66
2023-02-14T10:18:21.713Z,9.75
2023-02-14T10:20:52.452Z,10.05
2023-02-14T10:23:30.662Z,9.22
2023-02-14T10:26:03.049Z,9.06
2023-02-14T10:28:56.018Z,10.06
2023-02-14T10:31:44.070Z,9.58
2023-02-14T10:34:22.775Z,10.15
2023-02-14T10:36:52.365Z,10.32
2023-02-14T10:39:21.808Z,10.79
2023-02-14T10:42:39.880Z,11.10
2023-02-14T10:45:28.848Z,10.36
2023-02-14T10:48:04.898Z,10.61
2023-02-14T10:50:39.666Z,10.32
2023-02-14T10:53:27.865Z,10.15
2023-02-14T10:56:01.979Z,10.63
2023-02-14T10:58:32.733Z,10.19
2023-02-14T11:01:11.290Z,9.91
2023-02-14T11:03:43.883Z,10.02
2023-02-14T11:06:10.988Z,10.48
2023-02-14T11:08:41.234Z,11.12
2023-02-14T11:11:44.422Z,10.65
2023-02-14T11:14:33.368Z,11.16
2023-02-14T11:17:00.845Z,10.98
2023-02-14T11:19:36.908Z,10.69
2023-02-14T11:22:04.418Z,10.86
2023-02-14T11:24:42.236Z,11.68
2023-02-14T11:27:11.804Z,11.79
2023-02-14T11:29:41.219Z,11.49
2023-02-14T11:32:23.983Z,10.65
2023-02-14T11:35:03.242Z,11.33
2023-02-14T11:37:44.563Z,10.08
2023-02-14T11:40:27.356Z,10.43
2023-02-14T11:43:02.256Z,11.64
2023-02-14T11:45:39.826Z,10.99
2023-02-14T11:48:22.301Z,11.77
2023-02-14T11:51:06.169Z,11.06
2023-02-14T11:53:52.006Z,11.11
2023-02-14T11:56:20.419Z,11.34
2023-02-14T11:58:58.472Z,11.11
2023-02-14T12:01:28.175Z,12.21
2023-02-14T12:03:56.018Z,10.84
2023-02-14T12:06:27.545Z,11.58
2023-02-14T12:09:42.668Z,11.13
2023-02-14T12:12:21.727Z,11.68
2023-02-14T12:14:48.415Z,11.49
2023-02-14T12:17:35.865Z,11.56
2023-02-14T12:20:07.830Z,11.39
2023-02-14T12:22:40.414Z,11.29
2023-02-14T12:25:21.412Z,11.45
2023-02-14T12:27:51.427Z,11.60
2023-02-14T12:30:20.591Z,11.64
2023-02-14T12:32:56.725Z,11.92
2023-02-14T12:35:48.147Z,12.30
2023-02-14T12:38:45.496Z,11.90
2023-02-14T12:41:24.454Z,11.67
2023-02-14T12:43:53.777Z,11.90
2023-02-14T12:46:42.107Z,12.06
2023-02-14T12:49:30.475Z,12.69
2023-02-14T12:52:18.212Z,12.50
2023-02-14T12:55:14.061Z,12.48
2023-02-14T12:57:54.516Z,12.51
2023-02-14T13:00:39.330Z,12.02
2023-02-14T13:03:33.732Z,11.57
2023-02-14T13:06:33.792Z,12.53
2023-02-14T13:09:14.699Z,12.62
2023-02-14T13:11:56.340Z,12.29
2023-02-14T13:14:41.881Z,11.46
2023-02-14T13:17:34.749Z,11.91
2023-02-14T13:20:19.886Z,11.89
2023-02-14T13:22:47.196Z,11.65
2023-02-14T13:25:37.187Z,11.52
2023-02-14T13:28:11.668Z,11.97
2023-02-14T13:30:38.859Z,12.30
2023-02-14T13:33:19.632Z,12.63
2023-02-14T13:35:46.303Z,12.99
2023-02-14T13:38:14.645Z,12.14
2023-02-14T13:40:41.443Z,11.63
2023-02-14T13:43:07.944Z,11.78
2023-02-14T13:45:40.374Z,11.97
2023-02-14T13:48:29.327Z,11.96
2023-02-14T13:50:58.710Z,11.28
2023-02-14T13:53:48.110Z,11.56
2023-02-14T13:56:17.497Z,11.21
2023-02-14T13:58:55.306Z,11.28
2023-02-14T14:01:32.448Z,11.81
2023-02-14T14:04:05.641Z,12.07
2023-02-14T14:07:04.655Z,11.83
2023-02-14T14:09:40.601Z,11.33
2023-02-14T14:12:27.117Z,12.08
2023-02-14T14:15:20.492Z,12.27
2023-02-14T14:17:50.034Z,11.83
2023-02-14T14:20:16.492Z,11.90
2023-02-14T14:22:51.213Z,11.57
2023-02-14T14:25:39.028Z,11.89
2023-02-14T14:28:13.465Z,11.70
2023-02-14T14:30:44.712Z,11.65
2023-02-14T14:33:31.289Z,11.46
2023-02-14T14:36:06.089Z,11.06
2023-02-14T14:38:34.930Z,11.74
2023-02-14T14:41:02.277Z,11.92
2023-02-14T14:43:34.330Z,11.65
2023-02-14T14:46:02.966Z,11.79
2023-02-14T14:48:32.829Z,10.95
2023-02-14T14:50:59.842Z,11.33
2023-02-14T14:53:28.454Z,11.36
2023-02-14T14:55:55.678Z,10.77
2023-02-14T14:58:36.412Z,11.63
2023-02-14T15:01:04.784Z,11.59
2023-02-14T15:03:31.351Z,11.52
2023-02-14T15:06:09.336Z,10.80
2023-02-14T15:08:36.098Z,11.25
2023-02-14T15:11:38.560Z,10.85
2023-02-14T15:14:13.863Z,11.40
2023-02-14T15:16:49.642Z,11.52
2023-02-14T15:19:19.090Z,11.12
2023-02-14T15:21:46.022Z,10.79
2023-02-14T15:24:17.522Z,10.78
2023-02-14T15:26:46.119Z,11.11
2023-02-14T15:29:20.796Z,11.11
2023-02-14T15:31:48.803Z,11.29
2023-02-14T15:34:15.474Z,11.50
2023-02-14T15:36:52.201Z,11.33
2023-02-14T15:39:19.383Z,11.44
2023-02-14T15:41:46.261Z,11.29
2023-02-14T15:44:21.259Z,10.84
2023-02-14T15:46:48.202Z,11.48
2023-02-14T15:49:19.021Z,11.36
2023-02-14T15:51:47.816Z,11.11
2023-02-14T15:54:43.527Z,11.19
2023-02-14T15:57:21.121Z,11.25
2023-02-14T15:59:48.647Z,11.35
2023-02-14T16:02:40.366Z,11.03
2023-02-14T16:05:19.036Z,10.59
2023-02-14T16:07:55.822Z,10.54
2023-02-14T16:10:26.534Z,10.95
2023-02-14T16:12:57.430Z,11.11
2023-02-14T16:15:29.111Z,11.17
2023-02-14T16:17:55.813Z,10.96
2023-02-14T16:20:45.227Z,11.23
2023-02-14T16:23:29.076Z,10.89
2023-02-14T16:25:59.033Z,10.84
2023-02-14T16:28:29.679Z,10.61
2023-02-14T16:30:57.982Z,10.62
2023-02-14T16:33:31.088Z,10.59
2023-02-14T16:36:16.014Z,10.53
2023-02-14T16:38:44.439Z,10.58
2023-02-14T16:41:22.353Z,10.42
2023-02-14T16:43:49.661Z,10.13
2023-02-14T16:46:19.191Z,10.16
2023-02-14T16:48:46.771Z,9.94
2023-02-14T16:51:14.175Z,9.97
2023-02-14T16:53:42.298Z,9.85
2023-02-14T16:56:23.433Z,9.60
2023-02-14T16:58:49.945Z,9.59
2023-02-14T17:01:16.451Z,9.69
2023-02-14T17:03:43.547Z,9.51
2023-02-14T17:06:12.029Z,9.28
2023-02-14T17:08:39.534Z,9.53
2023-02-14T17:11:06.145Z,9.39
2023-02-14T17:13:33.812Z,9.27
2023-02-14T17:16:01.622Z,9.29
2023-02-14T17:18:29.923Z,9.36
2023-02-14T17:20:56.532Z,9.30
2023-02-14T17:23:24.414Z,8.85
2023-02-14T17:25:50.946Z,9.15
2023-02-14T17:28:17.431Z,8.94
2023-02-14T17:30:43.934Z,8.81
2023-02-14T17:33:10.495Z,8.56
2023-02-14T17:35:38.043Z,8.65
2023-02-14T17:38:04.777Z,8.64
2023-02-14T17:40:31.684Z,8.42
2023-02-14T17:42:58.177Z,8.43
2023-02-14T17:45:24.664Z,8.55
2023-02-14T17:47:51.135Z,8.47
2023-02-14T17:50:18.217Z,8.36
2023-02-14T17:52:45.024Z,8.26
2023-02-14T17:55:12.218Z,8.34
2023-02-14T17:57:40.897Z,7.91
2023-02-14T18:00:11.378Z,8.14
2023-02-14T18:02:38.543Z,8.19
2023-02-14T18:05:07.336Z,8.14
2023-02-14T18:07:33.915Z,8.05
2023-02-14T18:10:00.409Z,8.07
2023-02-14T18:12:27.949Z,7.89
2023-02-14T18:14:56.141Z,8.02
2023-02-14T18:17:23.169Z,8.06
2023-02-14T18:19:49.844Z,7.85
2023-02-14T18:22:16.343Z,7.77
2023-02-14T18:24:42.841Z,7.62
2023-02-14T18:27:09.332Z,7.30
2023-02-14T18:29:36.005Z,7.47
2023-02-14T18:32:03.810Z,7.67
2023-02-14T18:34:30.303Z,7.42
2023-02-14T18:36:57.282Z,7.34
2023-02-14T18:39:23.792Z,7.33
2023-02-14T18:41:50.307Z,7.52
2023-02-14T18:44:17.973Z,7.47
2023-02-14T18:46:44.724Z,7.60
2023-02-14T18:49:13.284Z,7.54
2023-02-14T18:51:39.854Z,7.47
2023-02-14T18:54:06.766Z,7.18
2023-02-14T18:56:36.230Z,7.32
2023-02-14T18:59:06.519Z,7.17
2023-02-14T19:01:37.173Z,7.16
2023-02-14T19:04:06.426Z,6.84
2023-02-14T19:06:34.083Z,6.90
2023-02-14T19:09:01.760Z,6.68
2023-02-14T19:11:33.883Z,6.60
2023-02-14T19:14:02.401Z,6.64
2023-02-14T19:16:31.749Z,6.89
2023-02-14T19:18:59.056Z,6.46
2023-02-14T19:21:27.971Z,6.34
2023-02-14T19:23:59.380Z,6.34
2023-02-14T19:26:32.950Z,6.39
2023-02-14T19:29:01.954Z,6.34
2023-02-14T19:31:29.625Z,6.11
2023-02-14T19:33:56.685Z,5.79
2023-02-14T19:36:23.486Z,5.94
2023-02-14T19:38:52.622Z,5.75
2023-02-14T19:41:22.664Z,5.63
2023-02-14T19:43:51.539Z,5.54
2023-02-14T19:46:19.932Z,5.32
2023-02-14T19:48:47.358Z,5.56
2023-02-14T19:51:15.276Z,5.59
2023-02-14T19:53:42.350Z,5.83
2023-02-14T19:56:08.887Z,5.84
2023-02-14T19:58:36.490Z,5.86
2023-02-14T20:01:03.440Z,6.03
2023-02-14T20:03:30.678Z,5.54
2023-02-14T20:05:57.773Z,5.50
2023-02-14T20:08:24.284Z,5.72
2023-02-14T20:10:50.745Z,5.83
2023-02-14T20:13:17.255Z,5.70
2023-02-14T20:15:46.738Z,5.70
2023-02-14T20:18:13.316Z,5.56
2023-02-14T20:21:04.160Z,5.99
2023-02-14T20:23:32.385Z,5.95
2023-02-14T20:25:58.836Z,5.70
2023-02-14T20:28:25.398Z,5.50
2023-02-14T20:30:51.972Z,5.49
2023-02-14T20:33:18.662Z,5.43
2023-02-14T20:35:45.131Z,5.42
2023-02-14T20:38:12.208Z,5.69
2023-02-14T20:40:39.478Z,5.88
2023-02-14T20:43:06.134Z,5.74
2023-02-14T20:45:33.024Z,5.90
2023-02-14T20:48:03.699Z,5.69
2023-02-14T20:50:31.128Z,5.85
2023-02-14T20:52:57.675Z,6.03
2023-02-14T20:55:26.975Z,6.00
2023-02-14T20:57:53.906Z,5.77
2023-02-14T21:00:20.516Z,5.69
2023-02-14T21:02:47.012Z,5.42
2023-02-14T21:05:18.365Z,5.66
2023-02-14T21:07:44.895Z,5.40
2023-02-14T21:10:11.375Z,5.52
2023-02-14T21:12:38.657Z,5.40
2023-02-14T21:15:06.992Z,5.36
2023-02-14T21:17:33.963Z,5.29
2023-02-14T21:20:00.472Z,5.37
2023-02-14T21:22:27.050Z,5.62
2023-02-14T21:24:53.486Z,5.37
2023-02-14T21:27:19.991Z,5.22
2023-02-14T21:29:46.544Z,5.44
2023-02-14T21:32:13.132Z,5.24
2023-02-14T21:34:39.848Z,5.40
2023-02-14T21:37:06.368Z,5.60
2023-02-14T21:39:35.771Z,5.75
2023-02-14T21:42:02.419Z,5.82
2023-02-14T21:44:47.600Z,5.91
2023-02-14T21:47:14.224Z,5.53
2023-02-14T21:49:59.359Z,5.68
2023-02-14T21:52:25.802Z,5.58
2023-02-14T21:54:52.531Z,5.49
2023-02-14T21:57:19.064Z,5.44
2023-02-14T21:59:45.572Z,5.29
2023-02-14T22:02:12.327Z,5.24
2023-02-14T22:04:38.866Z,5.27
2023-02-14T22:07:05.452Z,5.22
2023-02-14T22:09:31.942Z,5.13
2023-02-14T22:11:58.379Z,4.97
2023-02-14T22:14:25.427Z,4.87
2023-02-14T22:16:52.035Z,4.96
2023-02-14T22:19:18.622Z,4.89
2023-02-14T22:21:45.334Z,4.78
2023-02-14T22:24:13.449Z,4.90
2023-02-14T22:26:43.045Z,4.92
2023-02-14T22:29:11.651Z,5.05
2023-02-14T22:31:40.992Z,5.03
2023-02-14T22:34:08.869Z,5.18
2023-02-14T22:36:35.387Z,5.03
2023-02-14T22:39:02.314Z,5.02
2023-02-14T22:41:29.021Z,5.11
2023-02-14T22:43:56.415Z,4.93
2023-02-14T22:46:28.031Z,4.94
2023-02-14T22:48:57.083Z,4.93
2023-02-14T22:51:26.632Z,4.95
2023-02-14T22:53:59.997Z,4.83
2023-02-14T22:56:28.951Z,4.81
2023-02-14T22:58:57.512Z,4.48
2023-02-14T23:01:25.101Z,4.41
2023-02-14T23:03:55.868Z,4.64
2023-02-14T23:06:23.937Z,4.72
2023-02-14T23:08:50.872Z,4.85
2023-02-14T23:11:22.527Z,4.89
2023-02-14T23:14:07.648Z,4.93
2023-02-14T23:16:53.181Z,4.89
2023-02-14T23:19:40.857Z,4.85
2023-02-14T23:22:12.577Z,4.84
2023-02-14T23:24:39.656Z,4.78
2023-02-14T23:27:07.684Z,4.74
2023-02-14T23:29:34.504Z,4.51
2023-02-14T23:32:01.018Z,4.62
2023-02-14T23:34:29.538Z,4.72
2023-02-14T23:36:56.203Z,4.84
2023-02-14T23:39:23.000Z,4.86
2023-02-14T23:41:49.898Z,4.92
2023-02-14T23:44:24.823Z,5.03
2023-02-14T23:46:53.399Z,4.90
2023-02-14T23:49:20.202Z,4.96
2023-02-14T23:51:47.936Z,5.04
2023-02-14T23:54:14.928Z,4.95
2023-02-14T23:56:41.755Z,4.72
2023-02-14T23:59:08.541Z,4.96
